createdAt,value
2019-05-02T00:01:07.139Z,45.00
2019-05-02T00:02:12.338Z,45.75
2019-05-02T00:03:16.086Z,48.00
2019-05-02T00:04:21.053Z,40.75
2019-05-02T00:05:27.408Z,45.50
2019-05-02T00:06:29.093Z,42.00
2019-05-02T00:07:32.303Z,43.75
2019-05-02T00:08:35.109Z,43.75
2019-05-02T00:09:47.393Z,41.00
2019-05-02T00:10:42.475Z,40.50
2019-05-02T00:11:57.691Z,42.25
2019-05-02T00:12:50.999Z,45.00
2019-05-02T00:13:55.537Z,43.50
2019-05-02T00:15:02.105Z,43.25
2019-05-02T00:16:02.717Z,42.50
2019-05-02T00:17:05.622Z,41.75
2019-05-02T00:18:08.833Z,40.25
2019-05-02T00:19:13.973Z,40.00
2019-05-02T00:20:21.289Z,44.50
2019-05-02T00:21:22.091Z,43.25
2019-05-02T00:22:27.355Z,39.50
2019-05-02T00:23:30.514Z,42.75
2019-05-02T00:24:33.949Z,45.00
2019-05-02T00:25:37.838Z,47.75
2019-05-02T00:26:40.966Z,41.75
2019-05-02T00:27:44.578Z,43.25
2019-05-02T00:28:47.899Z,47.00
2019-05-02T00:29:53.764Z,47.75
2019-05-02T00:30:56.387Z,43.75
2019-05-02T00:31:59.179Z,41.25
2019-05-02T00:33:02.266Z,39.25
2019-05-02T00:34:05.179Z,46.50
2019-05-02T00:35:07.938Z,44.75
2019-05-02T00:36:10.760Z,46.50
2019-05-02T00:37:13.557Z,43.00
2019-05-02T00:38:16.360Z,48.75
2019-05-02T00:39:22.678Z,44.50
2019-05-02T00:40:27.453Z,44.25
2019-05-02T00:41:33.136Z,46.50
2019-05-02T00:42:34.376Z,38.25
2019-05-02T00:43:37.170Z,44.75
2019-05-02T00:44:42.154Z,44.00
2019-05-02T00:45:44.573Z,42.50
2019-05-02T00:46:47.418Z,47.00
2019-05-02T00:47:58.702Z,48.50
2019-05-02T00:49:01.990Z,43.50
2019-05-02T00:50:06.319Z,47.50
2019-05-02T00:51:09.304Z,40.00
2019-05-02T00:52:12.162Z,46.50
2019-05-02T00:53:14.948Z,42.50
2019-05-02T00:54:19.292Z,44.25
2019-05-02T00:55:28.903Z,50.50
2019-05-02T00:56:30.077Z,42.00
2019-05-02T00:57:32.868Z,42.00
2019-05-02T00:58:35.658Z,42.25
2019-05-02T00:59:42.474Z,47.75
2019-05-02T01:01:02.889Z,47.25
2019-05-02T01:02:16.356Z,44.50
2019-05-02T01:03:19.171Z,49.25
2019-05-02T01:04:29.020Z,40.50
2019-05-02T01:05:33.817Z,44.00
2019-05-02T01:06:36.491Z,43.00
2019-05-02T01:07:41.256Z,46.75
2019-05-02T01:08:44.085Z,46.50
2019-05-02T01:09:48.017Z,51.75
2019-05-02T01:10:52.202Z,39.25
2019-05-02T01:11:55.411Z,43.00
2019-05-02T01:12:58.624Z,44.25
2019-05-02T01:14:01.743Z,46.75
2019-05-02T01:15:08.329Z,45.00
2019-05-02T01:16:09.562Z,44.00
2019-05-02T01:17:12.353Z,46.00
2019-05-02T01:18:15.202Z,46.25
2019-05-02T01:19:18.040Z,49.00
2019-05-02T01:20:22.329Z,46.00
2019-05-02T01:21:27.338Z,48.00
2019-05-02T01:22:31.519Z,44.50
2019-05-02T01:23:34.430Z,44.25
2019-05-02T01:24:39.918Z,40.75
2019-05-02T01:25:41.675Z,42.50
2019-05-02T01:27:04.560Z,40.00
2019-05-02T01:28:31.254Z,42.50
2019-05-02T01:29:51.546Z,43.00
2019-05-02T01:31:25.246Z,45.25
2019-05-02T01:32:39.776Z,44.00
2019-05-02T01:34:00.039Z,48.00
2019-05-02T01:35:13.558Z,46.75
2019-05-02T01:36:22.690Z,45.25
2019-05-02T01:37:43.066Z,45.75
2019-05-02T01:38:49.234Z,38.00
2019-05-02T01:39:53.602Z,46.50
2019-05-02T01:40:56.456Z,42.50
2019-05-02T01:41:59.946Z,47.25
2019-05-02T01:43:04.119Z,38.25
2019-05-02T01:44:07.661Z,50.50
2019-05-02T01:45:11.159Z,44.25
2019-05-02T01:46:16.926Z,45.25
2019-05-02T01:47:20.206Z,41.50
2019-05-02T01:48:23.001Z,44.25
2019-05-02T01:49:25.869Z,46.00
2019-05-02T01:50:33.618Z,43.25
2019-05-02T01:51:36.659Z,46.00
2019-05-02T01:52:38.243Z,46.75
2019-05-02T01:53:41.470Z,47.75
2019-05-02T01:54:45.648Z,43.75
2019-05-02T01:55:51.972Z,40.75
2019-05-02T01:56:53.240Z,45.75
2019-05-02T01:57:56.032Z,41.00
2019-05-02T01:58:58.946Z,43.50
2019-05-02T02:00:04.356Z,48.25
2019-05-02T02:01:06.385Z,51.25
2019-05-02T02:02:09.953Z,40.75
2019-05-02T02:03:12.753Z,48.50
2019-05-02T02:04:16.122Z,43.00
2019-05-02T02:05:20.146Z,46.00
2019-05-02T02:06:23.394Z,47.25
2019-05-02T02:07:26.267Z,43.50
2019-05-02T02:08:32.638Z,50.50
2019-05-02T02:09:33.868Z,42.00
2019-05-02T02:10:36.676Z,39.50
2019-05-02T02:11:39.458Z,42.00
2019-05-02T02:13:02.196Z,46.25
2019-05-02T02:13:46.723Z,44.75
2019-05-02T02:14:53.525Z,46.00
2019-05-02T02:15:59.912Z,43.50
2019-05-02T02:17:00.076Z,42.00
2019-05-02T02:18:02.878Z,50.75
2019-05-02T02:19:24.836Z,46.75
2019-05-02T02:20:30.206Z,44.75
2019-05-02T02:21:57.419Z,48.75
2019-05-02T02:23:16.752Z,45.25
2019-05-02T02:24:25.259Z,45.25
2019-05-02T02:25:37.386Z,49.25
2019-05-02T02:26:43.692Z,49.50
2019-05-02T02:27:44.804Z,46.00
2019-05-02T02:28:47.653Z,45.50
2019-05-02T02:29:50.548Z,50.00
2019-05-02T02:30:57.731Z,49.75
2019-05-02T02:31:58.345Z,49.75
2019-05-02T02:33:07.389Z,42.00
2019-05-02T02:34:06.257Z,44.00
2019-05-02T02:35:10.572Z,42.50
2019-05-02T02:36:14.118Z,46.00
2019-05-02T02:37:16.937Z,49.75
2019-05-02T02:38:20.108Z,44.00
2019-05-02T02:39:23.195Z,45.75
2019-05-02T02:40:32.960Z,41.75
2019-05-02T02:41:30.923Z,48.25
2019-05-02T02:42:34.183Z,47.00
2019-05-02T02:43:37.076Z,45.00
2019-05-02T02:44:50.017Z,49.50
2019-05-02T02:46:00.314Z,48.75
2019-05-02T02:47:04.166Z,45.25
2019-05-02T02:48:07.436Z,46.50
2019-05-02T02:49:14.187Z,50.00
2019-05-02T02:50:14.774Z,48.25
2019-05-02T02:51:24.082Z,47.75
2019-05-02T02:52:22.386Z,48.75
2019-05-02T02:53:31.044Z,46.00
2019-05-02T02:54:36.601Z,40.00
2019-05-02T02:55:38.360Z,46.00
2019-05-02T02:56:42.718Z,49.75
2019-05-02T02:57:45.942Z,46.75
2019-05-02T02:58:48.768Z,49.00
2019-05-02T02:59:52.087Z,49.50
2019-05-02T03:00:54.901Z,49.50
2019-05-02T03:02:08.693Z,37.00
2019-05-02T03:03:03.033Z,44.00
2019-05-02T03:04:09.541Z,50.50
2019-05-02T03:05:11.255Z,46.75
2019-05-02T03:06:14.071Z,41.25
2019-05-02T03:07:25.895Z,43.25
2019-05-02T03:08:21.311Z,46.25
2019-05-02T03:09:26.619Z,43.25
2019-05-02T03:10:29.030Z,44.75
2019-05-02T03:11:39.974Z,40.50
2019-05-02T03:13:01.504Z,45.50
2019-05-02T03:14:21.494Z,45.25
2019-05-02T03:15:29.786Z,40.25
2019-05-02T03:16:33.087Z,48.50
2019-05-02T03:17:36.165Z,45.50
2019-05-02T03:18:45.998Z,44.25
2019-05-02T03:19:54.542Z,48.00
2019-05-02T03:20:54.378Z,41.75
2019-05-02T03:22:01.387Z,50.00
2019-05-02T03:23:01.629Z,52.00
2019-05-02T03:24:08.312Z,48.00
2019-05-02T03:25:11.262Z,44.25
2019-05-02T03:26:15.461Z,48.00
2019-05-02T03:27:18.810Z,45.75
2019-05-02T03:28:21.716Z,46.75
2019-05-02T03:29:39.269Z,51.00
2019-05-02T03:30:36.879Z,47.00
2019-05-02T03:31:35.358Z,45.25
2019-05-02T03:32:38.525Z,40.75
2019-05-02T03:33:54.538Z,46.00
2019-05-02T03:34:51.684Z,45.75
2019-05-02T03:35:50.786Z,46.50
2019-05-02T03:36:54.038Z,51.25
2019-05-02T03:37:56.894Z,50.50
2019-05-02T03:39:06.951Z,49.75
2019-05-02T03:40:05.194Z,43.50
2019-05-02T03:41:13.649Z,51.25
2019-05-02T03:42:13.230Z,47.50
2019-05-02T03:43:19.044Z,44.75
2019-05-02T03:44:25.941Z,47.50
2019-05-02T03:45:24.868Z,43.50
2019-05-02T03:46:30.360Z,50.25
2019-05-02T03:47:36.769Z,46.00
2019-05-02T03:48:38.031Z,46.75
2019-05-02T03:49:48.914Z,47.50
2019-05-02T03:50:45.680Z,49.00
2019-05-02T03:51:48.900Z,43.50
2019-05-02T03:52:52.067Z,49.25
2019-05-02T03:54:06.473Z,47.00
2019-05-02T03:54:59.351Z,53.50
2019-05-02T03:56:10.747Z,51.00
2019-05-02T03:57:06.578Z,46.25
2019-05-02T03:58:14.285Z,50.75
2019-05-02T03:59:14.391Z,48.50
2019-05-02T04:00:21.536Z,51.25
2019-05-02T04:01:24.614Z,51.50
2019-05-02T04:02:28.750Z,52.50
2019-05-02T04:03:33.920Z,50.50
2019-05-02T04:04:37.285Z,41.75
2019-05-02T04:05:42.296Z,50.25
2019-05-02T04:06:47.044Z,50.00
2019-05-02T04:07:50.768Z,48.25
2019-05-02T04:09:00.012Z,50.50
2019-05-02T04:09:59.959Z,54.25
2019-05-02T04:11:02.856Z,50.50
2019-05-02T04:12:11.355Z,51.00
2019-05-02T04:13:10.084Z,50.75
2019-05-02T04:14:35.905Z,50.25
2019-05-02T04:15:28.826Z,45.00
2019-05-02T04:16:32.881Z,50.50
2019-05-02T04:17:38.164Z,51.00
2019-05-02T04:18:54.571Z,50.25
2019-05-02T04:19:47.728Z,50.25
2019-05-02T04:20:52.039Z,42.50
2019-05-02T04:21:55.257Z,50.75
2019-05-02T04:22:59.467Z,53.25
2019-05-02T04:24:12.768Z,50.75
2019-05-02T04:25:06.873Z,48.75
2019-05-02T04:26:12.808Z,48.00
2019-05-02T04:27:14.534Z,50.50
2019-05-02T04:28:17.441Z,56.25
2019-05-02T04:29:24.552Z,44.00
2019-05-02T04:30:25.488Z,55.75
2019-05-02T04:31:32.215Z,54.25
2019-05-02T04:32:36.152Z,54.75
2019-05-02T04:33:39.323Z,56.00
2019-05-02T04:34:42.110Z,57.00
2019-05-02T04:35:46.856Z,59.50
2019-05-02T04:36:59.852Z,56.75
2019-05-02T04:37:54.369Z,57.50
2019-05-02T04:38:59.559Z,56.00
2019-05-02T04:40:04.021Z,54.25
2019-05-02T04:41:09.324Z,61.50
2019-05-02T04:42:19.530Z,55.75
2019-05-02T04:43:18.448Z,55.50
2019-05-02T04:44:21.378Z,54.50
2019-05-02T04:45:29.438Z,61.25
2019-05-02T04:46:31.076Z,59.50
2019-05-02T04:47:39.061Z,60.75
2019-05-02T04:48:48.532Z,60.25
2019-05-02T04:49:51.546Z,59.75
2019-05-02T04:50:59.689Z,60.75
2019-05-02T04:52:06.291Z,62.50
2019-05-02T04:53:04.732Z,60.25
2019-05-02T04:54:21.330Z,56.75
2019-05-02T04:55:22.913Z,62.00
2019-05-02T04:56:22.007Z,60.00
2019-05-02T04:57:29.209Z,54.50
2019-05-02T04:58:34.784Z,61.25
2019-05-02T04:59:39.660Z,59.25
2019-05-02T05:00:45.159Z,58.50
2019-05-02T05:01:52.929Z,62.00
2019-05-02T05:02:53.555Z,61.75
2019-05-02T05:03:58.259Z,64.25
2019-05-02T05:05:04.169Z,62.50
2019-05-02T05:06:14.443Z,63.75
2019-05-02T05:07:17.829Z,61.75
2019-05-02T05:08:26.200Z,60.00
2019-05-02T05:09:27.753Z,61.25
2019-05-02T05:10:40.364Z,59.25
2019-05-02T05:11:34.146Z,58.00
2019-05-02T05:12:40.874Z,59.75
2019-05-02T05:13:41.897Z,53.50
2019-05-02T05:14:45.226Z,57.50
2019-05-02T05:15:51.986Z,54.25
2019-05-02T05:16:56.086Z,59.00
2019-05-02T05:17:59.501Z,55.75
2019-05-02T05:19:02.347Z,56.50
2019-05-02T05:20:12.090Z,52.25
2019-05-02T05:21:10.656Z,53.50
2019-05-02T05:22:14.092Z,57.75
2019-05-02T05:23:23.888Z,58.75
2019-05-02T05:24:42.355Z,55.50
2019-05-02T05:25:50.626Z,55.25
2019-05-02T05:26:57.802Z,60.00
2019-05-02T05:28:05.620Z,57.25
2019-05-02T05:29:05.536Z,56.50
2019-05-02T05:43:44.863Z,54.00
2019-05-02T05:44:48.402Z,56.50
2019-05-02T05:45:56.589Z,54.50
2019-05-02T05:46:59.172Z,56.00
2019-05-02T05:48:02.262Z,64.00
2019-05-02T05:49:05.167Z,59.75
2019-05-02T05:50:08.340Z,62.50
2019-05-02T05:51:11.904Z,58.50
2019-05-02T05:52:17.983Z,60.00
2019-05-02T05:53:21.387Z,59.75
2019-05-02T05:54:25.688Z,62.25
2019-05-02T05:55:31.427Z,61.25
2019-05-02T05:56:39.779Z,61.00
2019-05-02T05:57:38.831Z,60.75
2019-05-02T05:58:48.131Z,59.50
2019-05-02T05:59:48.022Z,58.75
2019-05-02T06:00:55.412Z,64.25
2019-05-02T06:01:57.736Z,63.75
2019-05-02T06:03:10.126Z,60.25
2019-05-02T06:04:07.883Z,63.25
2019-05-02T06:05:10.069Z,61.25
2019-05-02T06:06:14.792Z,58.50
2019-05-02T06:07:19.864Z,61.75
2019-05-02T06:08:22.635Z,56.25
2019-05-02T06:09:26.364Z,58.75
2019-05-02T06:10:30.451Z,59.75
2019-05-02T06:11:33.387Z,59.75
2019-05-02T06:12:37.038Z,60.25
2019-05-02T06:13:42.990Z,60.50
2019-05-02T06:14:46.458Z,60.50
2019-05-02T06:16:01.610Z,59.25
2019-05-02T06:16:54.413Z,57.50
2019-05-02T06:17:59.990Z,59.75
2019-05-02T06:19:01.666Z,57.00
2019-05-02T06:20:08.078Z,59.50
2019-05-02T06:21:10.889Z,60.75
2019-05-02T06:22:16.574Z,61.25
2019-05-02T06:23:18.168Z,59.25
2019-05-02T06:24:21.335Z,58.50
2019-05-02T06:25:32.648Z,63.50
2019-05-02T06:26:28.815Z,57.00
2019-05-02T06:27:32.051Z,59.75
2019-05-02T06:28:36.195Z,58.00
2019-05-02T06:29:41.524Z,59.25
2019-05-02T06:30:44.511Z,64.50
2019-05-02T06:31:47.820Z,59.25
2019-05-02T06:32:54.929Z,65.25
2019-05-02T06:33:55.641Z,67.50
2019-05-02T06:34:58.794Z,63.75
2019-05-02T06:36:02.519Z,60.50
2019-05-02T06:37:08.237Z,59.25
2019-05-02T06:38:10.240Z,59.00
2019-05-02T06:39:13.117Z,60.75
2019-05-02T06:40:16.694Z,59.75
2019-05-02T06:41:20.971Z,65.25
2019-05-02T06:42:27.738Z,61.75
2019-05-02T06:43:29.418Z,63.00
2019-05-02T06:44:32.385Z,62.75
2019-05-02T06:45:37.727Z,64.75
2019-05-02T06:46:42.009Z,60.75
2019-05-02T06:47:44.892Z,61.50
2019-05-02T06:48:52.319Z,59.25
2019-05-02T06:49:56.021Z,55.25
2019-05-02T06:50:58.283Z,59.50
2019-05-02T06:52:01.702Z,63.75
2019-05-02T06:53:09.638Z,63.75
2019-05-02T06:55:22.275Z,55.75
2019-05-02T06:56:25.640Z,55.75
2019-05-02T06:57:28.471Z,60.00
2019-05-02T06:58:31.653Z,57.00
2019-05-02T06:59:36.759Z,62.50
2019-05-02T07:00:56.697Z,61.50
2019-05-02T07:01:45.174Z,57.50
2019-05-02T07:02:49.089Z,60.00
2019-05-02T07:03:52.304Z,59.25
2019-05-02T07:04:56.010Z,58.75
2019-05-02T07:06:02.821Z,59.50
2019-05-02T07:07:05.432Z,56.50
2019-05-02T07:08:11.801Z,56.00
2019-05-02T07:09:15.943Z,61.50
2019-05-02T07:10:24.849Z,57.50
2019-05-02T07:11:24.253Z,56.50
2019-05-02T07:12:30.576Z,59.50
2019-05-02T07:13:36.296Z,65.00
2019-05-02T07:14:45.549Z,61.00
2019-05-02T07:16:01.505Z,61.25
2019-05-02T07:17:26.568Z,58.00
2019-05-02T07:18:29.910Z,57.00
2019-05-02T07:19:41.237Z,56.50
2019-05-02T07:20:46.316Z,56.00
2019-05-02T07:21:53.144Z,56.25
2019-05-02T07:22:53.918Z,53.00
2019-05-02T07:23:58.508Z,53.75
2019-05-02T07:25:01.863Z,58.50
2019-05-02T07:26:07.668Z,57.50
2019-05-02T07:27:10.576Z,61.00
2019-05-02T07:28:13.664Z,53.50
2019-05-02T07:29:16.981Z,58.00
2019-05-02T07:30:30.021Z,54.75
2019-05-02T07:31:30.796Z,54.75
2019-05-02T07:32:37.623Z,53.25
2019-05-02T07:33:42.564Z,55.50
2019-05-02T07:34:48.135Z,61.25
2019-05-02T07:35:55.282Z,51.50
2019-05-02T07:36:58.059Z,56.25
2019-05-02T07:38:00.877Z,57.25
2019-05-02T07:39:06.132Z,55.25
2019-05-02T07:40:12.129Z,56.25
2019-05-02T07:41:14.566Z,54.25
2019-05-02T07:42:20.518Z,58.00
2019-05-02T07:43:25.087Z,50.75
2019-05-02T07:44:32.709Z,53.00
2019-05-02T07:45:33.724Z,54.75
2019-05-02T07:46:36.527Z,51.00
2019-05-02T07:47:40.106Z,55.00
2019-05-02T07:48:43.874Z,53.25
2019-05-02T07:49:48.748Z,50.50
2019-05-02T07:50:54.741Z,55.00
2019-05-02T07:52:00.560Z,53.75
2019-05-02T07:53:04.337Z,58.25
2019-05-02T07:54:08.531Z,54.75
2019-05-02T07:55:14.114Z,56.00
2019-05-02T07:56:19.021Z,55.75
2019-05-02T07:57:25.206Z,54.75
2019-05-02T07:58:26.366Z,57.25
2019-05-02T07:59:33.405Z,47.25
2019-05-02T08:00:38.499Z,49.50
2019-05-02T08:03:21.273Z,53.25
2019-05-02T08:04:24.497Z,52.75
2019-05-02T08:05:27.320Z,52.00
2019-05-02T08:06:35.256Z,54.50
2019-05-02T08:07:35.696Z,54.00
2019-05-02T08:08:39.082Z,53.75
2019-05-02T08:09:44.051Z,57.25
2019-05-02T08:10:47.415Z,51.25
2019-05-02T08:11:53.481Z,52.50
2019-05-02T08:12:59.891Z,50.00
2019-05-02T08:14:03.984Z,55.00
2019-05-02T08:15:13.154Z,48.50
2019-05-02T08:16:16.034Z,49.75
2019-05-02T08:17:22.608Z,53.25
2019-05-02T08:18:30.270Z,50.50
2019-05-02T08:19:37.419Z,53.00
2019-05-02T08:20:40.796Z,53.50
2019-05-02T08:21:44.403Z,52.50
2019-05-02T08:22:51.778Z,49.75
2019-05-02T08:23:57.070Z,45.75
2019-05-02T08:25:00.069Z,52.00
2019-05-02T08:26:07.859Z,49.50
2019-05-02T08:27:42.163Z,48.75
2019-05-02T08:28:56.262Z,53.75
2019-05-02T08:30:04.433Z,51.25
2019-05-02T08:31:08.704Z,52.50
2019-05-02T08:32:12.065Z,47.50
2019-05-02T08:33:15.192Z,47.50
2019-05-02T08:34:20.616Z,50.50
2019-05-02T08:35:23.972Z,54.00
2019-05-02T08:36:27.308Z,48.50
2019-05-02T08:37:35.171Z,49.25
2019-05-02T08:38:36.943Z,52.50
2019-05-02T08:39:40.331Z,50.50
2019-05-02T08:40:47.725Z,46.50
2019-05-02T08:41:51.372Z,45.50
2019-05-02T08:42:52.987Z,52.00
2019-05-02T08:43:56.245Z,52.00
2019-05-02T08:45:00.902Z,47.25
2019-05-02T08:46:04.278Z,51.00
2019-05-02T08:47:18.365Z,51.75
2019-05-02T08:48:11.636Z,48.00
2019-05-02T08:49:18.847Z,43.00
2019-05-02T08:50:20.909Z,45.75
2019-05-02T08:51:23.775Z,47.75
2019-05-02T08:52:27.092Z,50.00
2019-05-02T08:53:31.539Z,48.50
2019-05-02T08:54:46.081Z,48.00
2019-05-02T08:55:49.336Z,47.50
2019-05-02T08:56:53.492Z,50.50
2019-05-02T08:57:56.707Z,45.75
2019-05-02T08:59:00.024Z,53.00
2019-05-02T09:00:02.920Z,48.00
2019-05-02T09:01:09.257Z,44.25
2019-05-02T09:02:11.707Z,49.00
2019-05-02T09:03:14.530Z,45.75
2019-05-02T09:04:17.823Z,46.75
2019-05-02T09:05:21.217Z,49.25
2019-05-02T09:06:28.863Z,48.75
2019-05-02T09:07:37.016Z,48.00
2019-05-02T09:08:38.072Z,50.50
2019-05-02T09:09:42.077Z,48.25
2019-05-02T09:10:45.218Z,48.50
2019-05-02T09:12:07.043Z,50.25
2019-05-02T09:12:55.900Z,51.75
2019-05-02T09:13:58.854Z,51.00
2019-05-02T09:15:03.054Z,47.50
2019-05-02T09:16:06.207Z,50.25
2019-05-02T09:17:14.318Z,46.25
2019-05-02T09:18:14.863Z,48.50
2019-05-02T09:19:21.438Z,45.25
2019-05-02T09:20:27.250Z,46.00
2019-05-02T09:21:35.675Z,45.75
2019-05-02T09:22:36.318Z,42.75
2019-05-02T09:23:41.191Z,47.00
2019-05-02T09:24:45.346Z,47.50
2019-05-02T09:25:51.938Z,48.25
2019-05-02T09:26:57.456Z,46.00
2019-05-02T09:28:01.875Z,48.75
2019-05-02T09:29:07.530Z,46.00
2019-05-02T09:30:17.266Z,46.00
2019-05-02T09:31:22.653Z,46.25
2019-05-02T09:32:42.033Z,50.25
2019-05-02T09:33:49.019Z,46.50
2019-05-02T09:35:02.244Z,46.75
2019-05-02T09:36:08.775Z,43.25
2019-05-02T09:37:13.277Z,46.00
2019-05-02T09:38:16.740Z,49.00
2019-05-02T09:39:22.666Z,49.25
2019-05-02T09:40:27.406Z,47.25
2019-05-02T09:41:34.491Z,49.50
2019-05-02T09:42:35.089Z,46.00
2019-05-02T09:43:39.269Z,44.75
2019-05-02T09:44:47.919Z,42.50
2019-05-02T09:45:51.987Z,45.50
2019-05-02T09:46:57.069Z,45.50
2019-05-02T09:48:05.156Z,47.00
2019-05-02T09:49:11.948Z,40.75
2019-05-02T09:50:20.766Z,37.50
2019-05-02T09:51:25.229Z,36.25
2019-05-02T09:52:34.102Z,44.75
2019-05-02T09:53:32.723Z,43.00
2019-05-02T09:54:36.923Z,41.75
2019-05-02T09:55:50.238Z,46.50
2019-05-02T09:56:47.920Z,45.50
2019-05-02T09:57:51.988Z,43.00
2019-05-02T09:59:04.822Z,40.00
2019-05-02T10:00:03.003Z,46.25
2019-05-02T10:01:31.843Z,46.25
2019-05-02T10:02:37.112Z,41.75
2019-05-02T10:42:54.715Z,40.00
2019-05-02T10:43:59.613Z,42.75
2019-05-02T10:45:03.079Z,48.75
2019-05-02T10:46:14.315Z,46.75
2019-05-02T10:47:26.518Z,47.25
2019-05-02T10:48:29.436Z,44.75
2019-05-02T10:49:43.888Z,44.50
2019-05-02T10:50:52.331Z,44.75
2019-05-02T10:51:55.385Z,46.00
2019-05-02T10:54:23.100Z,44.25
2019-05-02T10:55:26.190Z,46.50
2019-05-02T10:56:28.993Z,44.00
2019-05-02T10:57:32.654Z,43.00
2019-05-02T10:58:37.761Z,41.50
2019-05-02T10:59:42.143Z,43.25
2019-05-02T11:00:45.578Z,43.25
2019-05-02T11:02:13.387Z,42.75
2019-05-02T11:03:38.028Z,42.75
2019-05-02T11:04:45.318Z,45.50
2019-05-02T11:05:50.199Z,45.50
2019-05-02T11:06:56.757Z,42.75
2019-05-02T11:08:04.703Z,44.00
2019-05-02T11:09:09.222Z,46.00
2019-05-02T11:10:15.619Z,45.50
2019-05-02T11:11:21.875Z,48.75
2019-05-02T11:12:47.355Z,49.25
2019-05-02T11:14:07.355Z,46.50
2019-05-02T11:15:41.859Z,44.50
2019-05-02T11:17:09.065Z,43.25
2019-05-02T11:18:15.871Z,41.50
2019-05-02T11:19:37.489Z,42.00
2019-05-02T11:20:42.083Z,37.25
2019-05-02T11:21:56.360Z,43.00
2019-05-02T11:22:54.501Z,38.50
2019-05-02T11:23:57.202Z,43.25
2019-05-02T11:25:04.900Z,45.75
2019-05-02T11:26:07.832Z,44.50
2019-05-02T11:27:12.813Z,44.75
2019-05-02T11:28:16.843Z,43.75
2019-05-02T11:29:19.856Z,44.00
2019-05-02T11:30:26.519Z,49.00
2019-05-02T11:31:28.579Z,44.75
2019-05-02T11:32:32.739Z,50.00
2019-05-02T11:33:36.374Z,47.50
2019-05-02T11:34:42.048Z,46.75
2019-05-02T11:35:48.906Z,49.75
2019-05-02T11:36:49.768Z,48.00
2019-05-02T11:37:55.842Z,45.75
2019-05-02T11:39:09.505Z,42.00
2019-05-02T11:40:06.008Z,45.25
2019-05-02T11:41:08.452Z,41.75
2019-05-02T11:42:12.475Z,43.00
2019-05-02T11:43:15.435Z,41.00
2019-05-02T11:44:18.844Z,44.75
2019-05-02T11:45:24.850Z,44.50
2019-05-02T11:46:27.715Z,45.25
2019-05-02T11:47:32.855Z,43.50
2019-05-02T11:48:36.495Z,43.75
2019-05-02T11:49:39.311Z,44.25
2019-05-02T11:50:42.447Z,40.00
2019-05-02T11:51:52.688Z,42.25
2019-05-02T11:52:53.651Z,44.75
2019-05-02T11:54:05.111Z,45.50
2019-05-02T11:55:04.267Z,46.00
2019-05-02T11:56:10.657Z,42.25
2019-05-02T11:57:13.308Z,45.50
2019-05-02T11:58:16.628Z,47.75
2019-05-02T11:59:27.667Z,44.00
2019-05-02T12:00:25.553Z,44.25
2019-05-02T12:01:37.256Z,41.25
2019-05-02T12:02:58.055Z,41.25
2019-05-02T12:04:00.005Z,43.25
2019-05-02T12:05:03.001Z,41.75
2019-05-02T12:06:06.704Z,39.25
2019-05-02T12:07:12.716Z,42.25
2019-05-02T12:08:15.537Z,42.00
2019-05-02T12:09:22.328Z,42.25
2019-05-02T12:10:38.591Z,37.75
2019-05-02T12:11:42.636Z,41.50
2019-05-02T12:12:46.643Z,41.00
2019-05-02T12:13:56.910Z,38.00
2019-05-02T12:15:02.533Z,41.00
2019-05-02T12:17:32.615Z,41.75
2019-05-02T12:18:37.635Z,41.50
2019-05-02T12:19:42.466Z,40.25
2019-05-02T12:20:45.702Z,41.75
2019-05-02T12:21:48.887Z,40.50
2019-05-02T12:22:52.759Z,40.25
2019-05-02T12:23:55.814Z,40.25
2019-05-02T12:24:58.749Z,40.25
2019-05-02T12:26:02.799Z,40.75
2019-05-02T12:27:08.926Z,42.00
2019-05-02T12:28:12.242Z,41.50
2019-05-02T12:29:15.270Z,38.25
2019-05-02T12:30:18.189Z,43.00
2019-05-02T12:31:22.136Z,42.25
2019-05-02T12:32:33.452Z,38.50
2019-05-02T12:33:39.703Z,38.25
2019-05-02T12:34:42.628Z,40.25
2019-05-02T12:35:45.484Z,41.50
2019-05-02T12:36:52.317Z,45.25
2019-05-02T12:37:58.022Z,40.75
2019-05-02T12:39:02.427Z,39.25
2019-05-02T12:40:06.274Z,38.25
2019-05-02T12:41:19.500Z,42.50
2019-05-02T12:42:16.109Z,36.50
2019-05-02T12:43:22.750Z,43.25
2019-05-02T12:44:23.678Z,39.00
2019-05-02T12:45:28.378Z,40.75
2019-05-02T12:46:31.781Z,40.75
2019-05-02T12:47:34.866Z,37.50
2019-05-02T12:48:37.685Z,38.75
2019-05-02T12:49:42.288Z,36.25
2019-05-02T12:50:45.009Z,40.25
2019-05-02T12:51:52.371Z,36.75
2019-05-02T12:52:58.452Z,34.75
2019-05-02T12:54:02.279Z,37.00
2019-05-02T12:55:05.634Z,38.75
2019-05-02T12:56:08.558Z,36.50
2019-05-02T12:57:12.592Z,40.25
2019-05-02T12:58:15.894Z,40.00
2019-05-02T12:59:19.378Z,37.25
2019-05-02T13:00:22.371Z,38.50
2019-05-02T13:01:25.281Z,40.50
2019-05-02T13:02:47.275Z,37.25
2019-05-02T13:04:04.241Z,38.75
2019-05-02T13:05:07.053Z,42.25
2019-05-02T13:06:12.723Z,43.00
2019-05-02T13:07:16.941Z,41.00
2019-05-02T13:08:21.820Z,40.25
2019-05-02T13:09:24.853Z,37.00
2019-05-02T13:10:44.912Z,36.50
2019-05-02T13:12:06.552Z,41.25
2019-05-02T13:13:12.179Z,42.50
2019-05-02T13:14:19.169Z,36.75
2019-05-02T13:15:19.633Z,35.25
2019-05-02T13:16:24.799Z,37.25
2019-05-02T13:17:30.303Z,33.75
2019-05-02T13:18:37.066Z,38.25
2019-05-02T13:19:41.207Z,36.50
2019-05-02T13:20:44.457Z,33.50
2019-05-02T13:22:15.921Z,42.50
2019-05-02T13:23:37.486Z,35.75
2019-05-02T13:25:02.320Z,34.75
2019-05-02T13:26:18.211Z,31.75
2019-05-02T13:27:13.553Z,34.50
2019-05-02T13:28:21.674Z,37.00
2019-05-02T13:29:22.467Z,35.75
2019-05-02T13:30:46.968Z,29.00
2019-05-02T13:31:56.141Z,29.25
2019-05-02T13:33:02.487Z,32.00
2019-05-02T13:34:16.197Z,28.25
2019-05-02T13:35:31.643Z,31.50
2019-05-02T13:36:33.361Z,31.50
2019-05-02T13:37:36.299Z,31.50
2019-05-02T13:38:42.257Z,31.75
2019-05-02T13:39:54.581Z,27.25
2019-05-02T13:41:02.429Z,29.75
2019-05-02T13:42:05.042Z,31.50
2019-05-02T13:43:07.906Z,27.75
2019-05-02T13:44:14.419Z,28.00
2019-05-02T13:45:34.863Z,29.00
2019-05-02T13:46:37.676Z,30.75
2019-05-02T13:47:42.521Z,30.25
2019-05-02T13:48:45.520Z,27.00
2019-05-02T13:49:53.835Z,28.00
2019-05-02T13:50:55.773Z,30.50
2019-05-02T13:51:59.249Z,27.50
2019-05-02T13:53:02.629Z,27.75
2019-05-02T13:54:05.601Z,28.25
2019-05-02T13:55:13.656Z,25.25
2019-05-02T13:56:47.128Z,25.00
2019-05-02T13:57:52.841Z,30.00
2019-05-02T13:58:55.942Z,32.25
2019-05-02T13:59:59.644Z,28.50
2019-05-02T14:01:03.474Z,30.00
2019-05-02T14:02:12.592Z,28.25
2019-05-02T14:03:18.039Z,21.50
2019-05-02T14:04:23.291Z,25.00
2019-05-02T14:05:31.706Z,21.50
2019-05-02T14:06:37.922Z,25.00
2019-05-02T14:07:42.931Z,26.50
2019-05-02T14:09:02.393Z,26.00
2019-05-02T14:10:11.950Z,27.00
2019-05-02T14:11:31.772Z,25.50
2019-05-02T14:12:54.292Z,26.50
2019-05-02T14:13:57.525Z,22.00
2019-05-02T14:15:03.287Z,26.75
2019-05-02T14:16:08.183Z,27.50
2019-05-02T14:17:12.927Z,27.00
2019-05-02T14:18:15.802Z,27.50
2019-05-02T14:19:22.216Z,32.00
2019-05-02T14:20:26.139Z,27.75
2019-05-02T14:22:54.293Z,28.75
2019-05-02T14:24:03.233Z,27.00
2019-05-02T14:25:01.988Z,27.25
2019-05-02T14:26:04.951Z,29.50
2019-05-02T14:27:12.861Z,27.25
2019-05-02T14:28:13.045Z,27.50
2019-05-02T14:29:16.481Z,28.50
2019-05-02T14:30:33.753Z,30.25
2019-05-02T14:31:24.834Z,26.50
2019-05-02T14:32:28.179Z,28.75
2019-05-02T14:33:34.447Z,30.00
2019-05-02T14:34:57.774Z,31.75
2019-05-02T14:36:01.769Z,30.75
2019-05-02T14:37:05.255Z,33.00
2019-05-02T14:38:13.499Z,28.25
2019-05-02T14:39:16.347Z,32.75
2019-05-02T14:40:26.511Z,31.00
2019-05-02T14:41:40.467Z,35.00
2019-05-02T14:42:37.104Z,33.50
2019-05-02T14:43:58.204Z,32.25
2019-05-02T14:45:09.037Z,33.75
2019-05-02T14:46:06.110Z,34.25
2019-05-02T14:47:17.713Z,34.50
2019-05-02T14:48:21.556Z,37.50
2019-05-02T14:49:25.495Z,31.25
2019-05-02T14:50:32.028Z,36.50
2019-05-02T14:51:36.733Z,35.25
2019-05-02T14:52:42.212Z,33.75
2019-05-02T14:53:45.120Z,33.00
2019-05-02T14:54:52.548Z,32.00
2019-05-02T14:56:04.397Z,36.75
2019-05-02T14:57:11.931Z,33.00
2019-05-02T14:58:24.354Z,37.75
2019-05-02T14:59:28.871Z,34.25
2019-05-02T15:00:39.495Z,36.00
2019-05-02T15:01:42.109Z,36.25
2019-05-02T15:02:52.982Z,35.50
2019-05-02T15:03:58.319Z,34.25
2019-05-02T15:05:02.630Z,35.25
2019-05-02T15:06:07.104Z,34.00